TNCE/EUX METAR and TAF weather

Enter ICAO airport designator
Station Type Date Time Source
TNCE METAR 2020/07/15 05:55 UTC NOAA

TNCE 150555Z AUTO 05010KT //// // ///////// 27/23 Q1015 RE//


Station Type Date Time Source
TNCE Decoded METAR 2020/07/15 05:55 UTC NOAA

Roosevelt Airport Saint Eustatius, Netherlands Antilles (TNCE) 17-29N 062-59W 39M
Jul 15, 2020 - 01:55 AM EDT / 2020.07.15 0555 UTC
Wind: from the NE (050 degrees) at 12 MPH (10 KT):0
Temperature: 80 F (27 C)
Dew Point: 73 F (23 C)
Relative Humidity: 78%
Pressure (altimeter): 29.97 in. Hg (1015 hPa)
ob: TNCE 150555Z AUTO 05010KT //// // ///////// 27/23 Q1015 RE//
cycle: 6

Station Type Date Time Source
TNCE TAF UTC NOAA

Error!

Example: see airport list